createdAt,value
2023-12-14T00:00:23.902Z,24.758717
2023-12-14T00:05:17.900Z,24.663059
2023-12-14T00:10:23.920Z,25.012733
2023-12-14T00:15:17.621Z,24.471740
2023-12-14T00:20:24.024Z,24.471740
2023-12-14T00:25:23.993Z,24.725276
2023-12-14T00:30:24.041Z,24.629455
2023-12-14T00:35:17.682Z,24.878060
2023-12-14T00:40:24.077Z,24.878060
2023-12-14T00:45:15.929Z,24.782080
2023-12-14T00:50:17.969Z,25.025883
2023-12-14T00:55:17.831Z,25.265161
2023-12-14T01:00:17.813Z,25.403589
2023-12-14T01:05:18.174Z,25.072579
2023-12-14T01:10:17.778Z,24.976286
2023-12-14T01:15:24.075Z,24.879992
2023-12-14T01:20:24.090Z,25.210700
2023-12-14T01:25:24.135Z,25.072579
2023-12-14T01:30:24.120Z,25.307145
2023-12-14T01:35:15.962Z,27.237251
2023-12-14T01:40:15.942Z,26.939508
2023-12-14T01:45:18.003Z,26.939508
2023-12-14T01:50:24.158Z,26.649976
2023-12-14T01:55:18.011Z,26.061523
2023-12-14T02:00:24.160Z,26.159131
2023-12-14T02:05:24.457Z,26.256738
2023-12-14T02:10:24.277Z,25.957392
2023-12-14T02:15:17.844Z,25.542995
2023-12-14T02:20:24.226Z,25.427205
2023-12-14T02:25:24.259Z,25.113456
2023-12-14T02:30:16.182Z,25.016558
2023-12-14T02:35:16.221Z,24.628960
2023-12-14T02:40:24.280Z,25.372571
2023-12-14T02:45:18.050Z,24.553801
2023-12-14T02:50:18.079Z,23.667470
2023-12-14T02:55:18.118Z,22.862292
2023-12-14T03:00:18.060Z,22.175608
2023-12-14T03:05:18.096Z,22.616998
2023-12-14T03:10:18.054Z,22.271292
2023-12-14T03:15:18.144Z,22.271292
2023-12-14T03:20:24.393Z,22.271292
2023-12-14T03:25:16.240Z,22.175608
2023-12-14T03:30:16.206Z,22.175608
2023-12-14T03:35:24.339Z,21.825524
2023-12-14T03:40:18.199Z,21.280049
2023-12-14T03:45:24.431Z,21.375412
2023-12-14T03:50:24.485Z,21.375412
2023-12-14T03:55:18.218Z,20.461634
2023-12-14T04:00:18.190Z,21.538948
2023-12-14T04:05:24.582Z,21.089319
2023-12-14T04:10:24.389Z,20.803218
2023-12-14T04:15:18.221Z,20.612478
2023-12-14T04:20:16.381Z,20.159197
2023-12-14T04:25:18.268Z,20.421734
2023-12-14T04:30:18.433Z,20.326360
2023-12-14T04:35:18.341Z,19.511236
2023-12-14T04:40:24.710Z,19.968778
2023-12-14T04:45:24.556Z,20.326360
2023-12-14T04:50:18.333Z,20.774702
2023-12-14T04:55:18.348Z,21.027331
2023-12-14T05:00:17.570Z,20.421734
2023-12-14T05:05:23.834Z,19.511236
2023-12-14T05:10:17.619Z,19.778356
2023-12-14T05:15:17.649Z,20.135610
2023-12-14T05:20:17.665Z,19.416190
2023-12-14T05:25:15.638Z,19.873568
2023-12-14T05:30:15.686Z,19.048966
2023-12-14T05:35:23.954Z,19.416190
2023-12-14T05:40:23.944Z,19.321143
2023-12-14T05:45:17.650Z,19.587929
2023-12-14T05:50:17.872Z,19.587929
2023-12-14T05:55:23.954Z,19.944856
2023-12-14T06:00:23.960Z,19.944856
2023-12-14T06:05:24.056Z,19.397497
2023-12-14T06:10:24.167Z,19.849477
2023-12-14T06:15:17.643Z,19.397497
2023-12-14T06:20:15.844Z,19.849477
2023-12-14T06:25:15.797Z,18.940943
2023-12-14T06:31:01.343Z,18.479674
2023-12-14T06:35:17.914Z,17.826029
2023-12-14T06:40:24.074Z,16.261167
2023-12-14T06:45:17.875Z,16.354994
2023-12-14T06:50:17.904Z,15.535252
2023-12-14T06:55:17.807Z,15.628705
2023-12-14T07:00:24.068Z,14.688579
2023-12-14T07:05:17.981Z,15.115400
2023-12-14T07:10:17.814Z,15.022136
2023-12-14T07:15:15.959Z,14.502437
2023-12-14T07:20:24.262Z,14.068791
2023-12-14T07:25:24.185Z,14.316289
2023-12-14T07:30:18.004Z,14.742335
2023-12-14T07:35:24.311Z,14.223212
2023-12-14T07:40:17.988Z,15.067965
2023-12-14T07:45:18.018Z,14.037055
2023-12-14T07:50:25.308Z,14.462521
2023-12-14T07:55:24.247Z,15.386500
2023-12-14T08:00:17.973Z,13.511506
2023-12-14T08:05:16.118Z,14.787575
2023-12-14T08:10:15.889Z,15.604337
2023-12-14T08:15:18.056Z,15.011888
2023-12-14T08:20:18.178Z,15.416659
2023-12-14T08:25:18.037Z,14.918232
2023-12-14T08:30:18.054Z,15.228976
2023-12-14T08:35:18.339Z,15.627120
2023-12-14T08:40:18.053Z,15.135132
2023-12-14T08:45:18.262Z,14.947440
2023-12-14T08:50:24.361Z,14.759742
2023-12-14T08:55:18.121Z,15.359749
2023-12-14T09:00:16.177Z,15.650352
2023-12-14T09:05:17.172Z,15.840379
2023-12-14T09:10:18.075Z,16.944601
2023-12-14T09:15:24.424Z,17.134750
2023-12-14T09:20:24.427Z,17.397707
2023-12-14T09:25:24.325Z,16.581733
2023-12-14T09:30:24.488Z,17.750879
2023-12-14T09:35:24.572Z,17.302467
2023-12-14T09:40:24.468Z,17.302467
2023-12-14T09:45:24.439Z,17.750879
2023-12-14T09:50:24.578Z,17.207226
2023-12-14T09:55:16.349Z,17.908202
2023-12-14T10:00:24.463Z,18.156023
2023-12-14T10:05:18.332Z,17.717069
2023-12-14T10:10:24.495Z,17.369261
2023-12-14T10:15:24.403Z,17.717069
2023-12-14T10:20:18.249Z,17.273854
2023-12-14T10:25:24.645Z,16.826250
2023-12-14T10:30:18.366Z,17.525933
2023-12-14T10:35:24.684Z,17.677386
2023-12-14T10:40:24.644Z,16.635756
2023-12-14T10:45:19.231Z,17.083036
2023-12-14T10:50:16.691Z,16.635756
2023-12-14T10:55:18.460Z,16.183960
2023-12-14T11:00:24.693Z,16.183960
2023-12-14T11:05:24.802Z,16.445258
2023-12-14T11:10:24.684Z,16.350007
2023-12-14T11:15:18.541Z,15.898701
2023-12-14T11:20:18.420Z,15.803612
2023-12-14T11:25:29.556Z,16.254755
2023-12-14T11:30:24.870Z,15.537669
2023-12-14T11:35:24.827Z,16.701389
2023-12-14T11:40:16.578Z,16.952499
2023-12-14T11:45:16.684Z,16.510559
2023-12-14T11:50:18.726Z,15.968992
2023-12-14T11:55:24.827Z,15.518340
2023-12-14T12:00:18.676Z,15.328152
2023-12-14T12:05:18.759Z,15.233057
2023-12-14T12:10:55.876Z,15.137961
2023-12-14T12:15:18.533Z,15.397438
2023-12-14T12:20:24.977Z,15.747198
2023-12-14T12:25:24.923Z,15.397438
2023-12-14T12:30:24.865Z,15.042863
2023-12-14T12:35:16.740Z,16.283447
2023-12-14T12:40:16.722Z,15.938045
2023-12-14T12:45:18.707Z,15.137961
2023-12-14T12:50:25.158Z,15.492700
2023-12-14T12:55:18.839Z,15.328152
2023-12-14T13:00:18.706Z,15.683220
2023-12-14T13:05:25.044Z,15.423247
2023-12-14T13:10:26.152Z,15.778479
2023-12-14T13:15:18.686Z,15.518340
2023-12-14T13:20:25.273Z,15.423247
2023-12-14T13:25:24.997Z,15.778479
2023-12-14T13:30:16.850Z,15.873736
2023-12-14T13:35:17.031Z,16.064247
2023-12-14T13:40:18.988Z,15.613432
2023-12-14T13:45:18.839Z,15.708522
2023-12-14T13:50:25.243Z,15.708522
2023-12-14T13:55:25.085Z,14.982000
2023-12-14T14:00:25.119Z,15.708522
2023-12-14T14:05:25.189Z,15.442747
2023-12-14T14:10:25.140Z,16.701389
2023-12-14T14:15:18.819Z,15.442747
2023-12-14T14:20:17.050Z,16.445258
2023-12-14T14:25:16.990Z,15.917345
2023-12-14T14:30:25.294Z,15.917345
2023-12-14T14:35:19.012Z,15.645255
2023-12-14T14:40:25.198Z,15.550508
2023-12-14T14:45:18.975Z,16.374127
2023-12-14T14:50:25.270Z,16.297002
2023-12-14T14:55:25.164Z,15.556670
2023-12-14T15:00:25.194Z,16.024231
2023-12-14T15:05:19.192Z,15.934946
2023-12-14T15:10:25.271Z,17.056262
2023-12-14T15:15:17.075Z,16.218640
2023-12-14T15:20:17.079Z,15.171320
2023-12-14T15:25:25.298Z,16.497924
2023-12-14T15:30:19.155Z,15.548173
2023-12-14T15:35:25.569Z,16.122292
2023-12-14T15:40:19.138Z,15.830800
2023-12-14T15:45:19.152Z,16.405441
2023-12-14T15:50:19.429Z,15.815168
2023-12-14T15:55:25.432Z,16.490217
2023-12-14T16:00:25.377Z,16.003210
2023-12-14T16:05:26.029Z,15.604337
2023-12-14T16:10:17.094Z,15.105543
2023-12-14T16:15:25.404Z,16.584414
2023-12-14T16:20:25.605Z,15.480149
2023-12-14T16:25:25.365Z,15.480149
2023-12-14T16:30:19.253Z,16.261167
2023-12-14T16:35:19.352Z,15.254884
2023-12-14T16:40:19.240Z,15.254884
2023-12-14T16:45:19.281Z,16.042016
2023-12-14T16:50:25.561Z,14.874715
2023-12-14T16:55:19.299Z,14.781648
2023-12-14T17:00:17.409Z,16.322930
2023-12-14T17:05:17.385Z,15.060845
2023-12-14T17:10:25.661Z,15.060845
2023-12-14T17:15:25.618Z,15.488440
2023-12-14T17:20:25.636Z,14.626018
2023-12-14T17:25:26.053Z,15.153908
2023-12-14T17:30:25.584Z,15.954707
2023-12-14T17:35:19.381Z,15.712251
2023-12-14T17:40:25.645Z,15.554604
2023-12-14T17:45:19.461Z,16.177494
2023-12-14T17:50:19.480Z,15.991402
2023-12-14T17:55:17.528Z,15.202927
2023-12-14T18:00:17.458Z,14.565691
2023-12-14T18:05:25.761Z,15.898353
2023-12-14T18:10:19.453Z,15.740302
2023-12-14T18:15:25.675Z,14.843028
2023-12-14T18:20:25.835Z,15.295575
2023-12-14T18:25:25.699Z,15.388221
2023-12-14T18:30:25.687Z,14.566833
2023-12-14T18:35:25.795Z,14.659065
2023-12-14T18:40:19.488Z,14.465385
2023-12-14T18:45:23.781Z,14.465385
2023-12-14T18:50:23.745Z,13.986228
2023-12-14T18:55:17.669Z,13.681079
2023-12-14T19:00:16.685Z,14.169824
2023-12-14T19:05:23.830Z,13.772655
2023-12-14T19:10:17.671Z,13.365499
2023-12-14T19:15:17.604Z,13.039058
2023-12-14T19:20:23.909Z,14.138943
2023-12-14T19:25:15.607Z,13.730888
2023-12-14T19:30:15.896Z,12.261074
2023-12-14T19:35:23.935Z,12.883061
2023-12-14T19:40:23.898Z,11.809005
2023-12-14T19:45:23.894Z,12.351720
2023-12-14T19:50:23.926Z,13.403523
2023-12-14T19:55:17.689Z,13.064818
2023-12-14T20:00:24.138Z,14.096247
2023-12-14T20:05:24.030Z,13.676851
2023-12-14T20:10:23.849Z,12.623645
2023-12-14T20:15:23.883Z,13.246568
2023-12-14T20:20:15.834Z,13.337440
2023-12-14T20:25:15.846Z,14.461575
2023-12-14T20:30:17.998Z,14.461575
2023-12-14T20:35:24.164Z,13.950163
2023-12-14T20:40:23.916Z,13.767957
2023-12-14T20:45:17.702Z,13.767957
2023-12-14T20:50:17.968Z,13.676851
2023-12-14T20:55:24.059Z,14.096247
2023-12-14T21:00:23.974Z,12.883061
2023-12-14T21:05:31.613Z,12.701295
2023-12-14T21:10:24.008Z,13.130177
2023-12-14T21:15:15.901Z,13.955803
2023-12-14T21:20:16.038Z,14.261620
2023-12-14T21:25:24.244Z,13.091438
2023-12-14T21:30:24.045Z,13.894428
2023-12-14T21:35:17.966Z,15.120350
2023-12-14T21:40:17.965Z,13.435398
2023-12-14T21:45:17.919Z,13.343586
2023-12-14T21:50:24.177Z,13.251773
2023-12-14T21:55:24.142Z,13.159958
2023-12-14T22:00:24.186Z,12.976322
2023-12-14T22:05:24.147Z,16.469717
2023-12-14T22:10:16.079Z,16.697462
2023-12-14T22:15:24.111Z,14.904611
2023-12-14T22:20:24.356Z,14.997472
2023-12-14T22:25:24.276Z,15.433086
2023-12-14T22:30:24.306Z,15.768205
2023-12-14T22:35:18.091Z,16.917929
2023-12-14T22:40:24.289Z,16.917929
2023-12-14T22:45:24.347Z,15.153908
2023-12-14T22:50:24.333Z,15.060845
2023-12-14T22:55:24.270Z,15.815607
2023-12-14T23:00:16.108Z,16.448820
2023-12-14T23:05:16.291Z,17.149569
2023-12-14T23:10:18.170Z,16.473292
2023-12-14T23:15:18.182Z,17.447852
2023-12-14T23:20:24.435Z,17.447852
2023-12-14T23:25:24.288Z,18.005232
2023-12-14T23:30:24.390Z,17.539945
2023-12-14T23:35:24.434Z,17.255772
2023-12-14T23:40:18.212Z,15.627120
2023-12-14T23:45:18.129Z,17.255772
2023-12-14T23:50:24.474Z,16.594201
2023-12-14T23:55:16.404Z,15.698174
